Time;durP1;ratioP1;P1;durP2;ratioP2;P2;SDS_P1;SDS_P2;PMS_P1;PMS_P2;Temp;Humidity;BMP_temperature;BMP_pressure;BME280_temperature;BME280_humidity;BME280_pressure;Samples;Min_cycle;Max_cycle;Signal;HPM_P1;HPM_P2
2024/01/23 00:00:07;;;;;;;8.15;1.52;;;11.50;63.90;12.90;101368.00;;;;5054835;28;20195;-77
2024/01/23 00:02:34;;;;;;;6.00;1.27;;;11.40;63.90;12.90;101371.00;;;;5054583;28;20195;-77
2024/01/23 00:05:01;;;;;;;4.57;1.52;;;11.40;63.90;12.90;101383.00;;;;5046156;28;20206;-77
2024/01/23 00:07:30;;;;;;;4.53;1.13;;;11.40;63.90;12.90;101394.00;;;;5040498;28;20210;-77
2024/01/23 00:09:57;;;;;;;6.63;1.85;;;11.40;63.90;12.90;101387.00;;;;5038973;28;20199;-77
2024/01/23 00:12:24;;;;;;;5.95;1.63;;;11.40;63.90;12.90;101387.00;;;;5038457;28;20219;-78
2024/01/23 00:14:51;;;;;;;6.75;1.65;;;11.40;64.00;12.90;101393.00;;;;5039467;28;20202;-76
2024/01/23 00:17:18;;;;;;;10.88;1.48;;;11.40;63.90;12.90;101396.00;;;;5044250;28;20195;-77
2024/01/23 00:19:45;;;;;;;9.65;1.67;;;11.40;63.90;12.90;101406.00;;;;5050582;28;20275;-77
2024/01/23 00:22:12;;;;;;;8.65;2.00;;;11.40;63.90;12.90;101413.00;;;;5034993;28;20198;-77
2024/01/23 00:24:40;;;;;;;11.50;2.00;;;11.40;64.00;12.90;101429.00;;;;5034251;28;20193;-77
2024/01/23 00:27:07;;;;;;;7.80;1.77;;;11.40;64.00;13.00;101414.00;;;;5038727;28;20188;-77
2024/01/23 00:29:34;;;;;;;8.95;2.13;;;11.50;64.10;13.00;101407.00;;;;5052744;28;20199;-77
2024/01/23 00:32:01;;;;;;;9.23;1.75;;;11.50;64.10;13.00;101434.00;;;;5036602;28;20322;-77
2024/01/23 00:34:29;;;;;;;9.18;1.95;;;11.50;64.10;13.00;101446.00;;;;5034446;28;20720;-76
2024/01/23 00:36:56;;;;;;;7.15;1.88;;;11.50;63.90;13.00;101432.00;;;;5046135;28;20190;-76
2024/01/23 00:39:23;;;;;;;22.50;2.30;;;11.60;64.00;13.00;101426.00;;;;5046401;28;20199;-76
2024/01/23 00:41:52;;;;;;;10.43;2.08;;;11.60;64.00;13.00;101445.00;;;;5050124;28;20257;-77
2024/01/23 00:44:19;;;;;;;11.07;2.53;;;11.60;63.90;13.00;101448.00;;;;5050773;28;20220;-76
2024/01/23 00:46:46;;;;;;;9.18;1.75;;;11.60;63.80;13.00;101462.00;;;;5043265;28;20210;-77
2024/01/23 00:49:13;;;;;;;9.82;1.77;;;11.60;63.60;13.10;101460.00;;;;5055650;28;21625;-76
2024/01/23 00:51:40;;;;;;;6.22;1.98;;;11.60;63.60;13.00;101464.00;;;;5047261;28;20249;-77
2024/01/23 00:54:07;;;;;;;8.57;2.22;;;11.60;63.40;13.00;101466.00;;;;5036973;28;20650;-76
2024/01/23 00:56:35;;;;;;;11.75;2.72;;;11.60;63.40;13.00;101471.00;;;;5045114;28;20188;-77
2024/01/23 00:59:03;;;;;;;10.27;2.45;;;11.60;63.30;13.00;101480.00;;;;5048084;28;20188;-76
2024/01/23 01:01:30;;;;;;;9.55;1.98;;;11.60;63.90;13.00;101482.00;;;;5049709;28;20280;-77
2024/01/23 01:03:57;;;;;;;11.52;2.58;;;11.60;63.30;13.00;101495.00;;;;5036829;28;20192;-76
2024/01/23 01:06:24;;;;;;;7.38;2.25;;;11.60;63.10;12.90;101491.00;;;;5037265;28;20188;-77
2024/01/23 01:08:52;;;;;;;6.32;2.08;;;11.60;63.10;12.90;101496.00;;;;5042785;28;20201;-76
2024/01/23 01:11:19;;;;;;;7.72;1.48;;;11.60;63.00;12.90;101499.00;;;;5036473;28;20302;-77
2024/01/23 01:13:46;;;;;;;6.20;1.48;;;11.50;62.70;12.80;101497.00;;;;5039402;28;20604;-77
2024/01/23 01:16:15;;;;;;;8.18;1.85;;;11.50;62.70;12.80;101508.00;;;;5037240;28;20199;-77
2024/01/23 01:18:42;;;;;;;9.20;2.30;;;11.50;62.10;12.80;101518.00;;;;5045807;28;20188;-76
2024/01/23 01:21:09;;;;;;;8.98;1.25;;;11.50;62.10;12.80;101519.00;;;;5045449;28;20194;-77
2024/01/23 01:23:37;;;;;;;9.65;1.90;;;11.40;62.00;12.70;101526.00;;;;5039719;28;20274;-77
2024/01/23 01:26:04;;;;;;;7.45;1.60;;;11.40;61.70;12.70;101535.00;;;;5036632;28;20192;-77
2024/01/23 01:28:31;;;;;;;8.40;1.13;;;11.40;61.60;12.70;101537.00;;;;5041201;28;20196;-78
2024/01/23 01:30:58;;;;;;;6.57;1.80;;;11.40;61.80;12.70;101541.00;;;;5048983;28;20196;-77
2024/01/23 01:33:26;;;;;;;10.38;1.60;;;11.30;61.60;12.60;101543.00;;;;5052929;28;20295;-78
2024/01/23 01:35:54;;;;;;;9.80;1.75;;;11.30;61.60;12.60;101541.00;;;;5049263;28;20188;-77
2024/01/23 01:38:21;;;;;;;9.27;1.48;;;11.30;61.50;12.60;101539.00;;;;5037057;28;20192;-76
2024/01/23 01:40:48;;;;;;;7.88;1.30;;;11.30;61.50;12.60;101548.00;;;;5043503;28;20273;-76
2024/01/23 01:43:27;;;;;;;8.48;1.58;;;11.30;61.20;12.50;101539.00;;;;5045726;28;20215;-78
2024/01/23 01:46:15;;;;;;;6.25;1.48;;;11.20;61.00;12.40;101549.00;;;;5046337;28;20196;-77
2024/01/23 01:48:44;;;;;;;7.00;1.20;;;11.20;61.20;12.50;101537.00;;;;5038143;28;20209;-77
2024/01/23 01:51:12;;;;;;;6.10;1.30;;;11.20;61.80;12.50;101554.00;;;;5041865;28;20196;-77
2024/01/23 01:53:40;;;;;;;9.75;2.13;;;11.20;61.00;12.40;101561.00;;;;5042437;28;20207;-77
2024/01/23 01:56:09;;;;;;;5.25;1.42;;;11.10;61.20;12.40;101571.00;;;;5042883;28;20206;-77
2024/01/23 01:58:37;;;;;;;6.53;1.38;;;11.10;61.80;12.40;101574.00;;;;5043060;28;20227;-77
2024/01/23 02:01:04;;;;;;;6.22;1.15;;;11.10;61.20;12.40;101573.00;;;;5048512;28;20187;-77
2024/01/23 02:03:32;;;;;;;6.88;1.63;;;11.00;61.10;12.40;101577.00;;;;5051382;28;20563;-77
2024/01/23 02:06:04;;;;;;;8.55;1.50;;;11.00;61.20;12.30;101577.00;;;;5050807;28;20637;-77
2024/01/23 02:08:32;;;;;;;5.57;0.98;;;11.00;61.20;12.40;101597.00;;;;5047368;28;20200;-76
2024/01/23 02:11:00;;;;;;;6.15;1.17;;;11.00;61.30;12.40;101595.00;;;;5036967;28;20237;-77
2024/01/23 02:13:27;;;;;;;12.88;2.15;;;11.00;61.40;12.30;101598.00;;;;5035680;28;20235;-76
2024/01/23 02:15:54;;;;;;;5.53;1.10;;;11.00;61.60;12.40;101607.00;;;;5052415;28;20279;-76
2024/01/23 02:18:22;;;;;;;6.43;1.77;;;11.00;61.60;12.40;101615.00;;;;5050783;28;20195;-77
2024/01/23 02:20:49;;;;;;;9.45;1.60;;;10.90;61.70;12.40;101624.00;;;;5042730;28;20196;-76
2024/01/23 02:23:18;;;;;;;7.22;1.58;;;10.90;61.70;12.40;101635.00;;;;5047557;28;20192;-76
2024/01/23 02:25:46;;;;;;;7.32;1.67;;;10.90;61.90;12.40;101636.00;;;;5032297;28;20194;-77
2024/01/23 02:28:15;;;;;;;5.85;1.30;;;11.00;62.10;12.40;101649.00;;;;5031368;28;20700;-76
2024/01/23 02:30:42;;;;;;;8.90;1.63;;;11.00;62.10;12.50;101652.00;;;;5034090;28;20196;-76
2024/01/23 02:33:09;;;;;;;7.53;1.55;;;11.00;62.10;12.50;101656.00;;;;5040358;28;20241;-77
2024/01/23 02:35:37;;;;;;;12.20;1.85;;;11.00;62.10;12.50;101645.00;;;;5042218;28;20279;-77
2024/01/23 02:38:04;;;;;;;5.20;1.00;;;11.00;62.10;12.50;101666.00;;;;5033472;28;20573;-77
2024/01/23 02:40:32;;;;;;;4.45;1.30;;;11.00;62.10;12.50;101671.00;;;;5035024;28;20288;-77
2024/01/23 02:43:00;;;;;;;7.38;1.48;;;11.00;62.20;12.40;101679.00;;;;5038212;28;20216;-77
2024/01/23 02:45:27;;;;;;;10.25;1.98;;;11.00;62.30;12.50;101664.00;;;;5031759;28;20534;-78
2024/01/23 02:47:54;;;;;;;10.60;1.88;;;11.00;62.40;12.50;101676.00;;;;5048132;28;20203;-76
2024/01/23 02:50:21;;;;;;;8.02;1.63;;;11.00;62.40;12.50;101682.00;;;;5047842;28;20192;-77
2024/01/23 02:52:49;;;;;;;9.95;1.92;;;11.00;62.60;12.60;101685.00;;;;5051272;28;20219;-76
2024/01/23 02:55:17;;;;;;;7.28;2.13;;;11.00;62.60;12.60;101684.00;;;;5042982;28;20200;-77
2024/01/23 02:57:44;;;;;;;10.02;1.60;;;11.00;62.70;12.60;101683.00;;;;5035184;28;20187;-77
2024/01/23 03:00:13;;;;;;;8.75;1.95;;;11.10;62.80;12.60;101683.00;;;;5041397;28;20283;-76
2024/01/23 03:02:40;;;;;;;12.40;1.75;;;11.10;62.80;12.70;101685.00;;;;5032814;28;20271;-77
2024/01/23 03:05:08;;;;;;;7.15;2.00;;;11.10;62.80;12.70;101702.00;;;;5032262;28;20192;-76
2024/01/23 03:07:35;;;;;;;7.80;1.83;;;11.20;62.80;12.70;101709.00;;;;5031793;28;20206;-77
2024/01/23 03:10:03;;;;;;;12.68;1.92;;;11.20;62.70;12.70;101709.00;;;;5041430;28;20192;-76
2024/01/23 03:12:31;;;;;;;6.38;1.60;;;11.20;62.70;12.70;101716.00;;;;5039947;28;20231;-77
2024/01/23 03:14:58;;;;;;;6.38;1.67;;;11.20;62.70;12.80;101719.00;;;;5031290;28;20204;-76
2024/01/23 03:17:26;;;;;;;10.95;2.03;;;11.20;62.60;12.70;101709.00;;;;5034744;28;20648;-78
2024/01/23 03:19:54;;;;;;;6.07;1.45;;;11.20;62.50;12.70;101720.00;;;;5044943;28;20250;-77
2024/01/23 03:22:21;;;;;;;7.47;1.80;;;11.30;62.40;12.70;101727.00;;;;5035035;28;20327;-77
2024/01/23 03:24:48;;;;;;;7.15;2.05;;;11.20;62.30;12.70;101726.00;;;;5035350;28;20188;-76
2024/01/23 03:27:15;;;;;;;8.13;1.70;;;11.20;62.20;12.70;101730.00;;;;5052276;28;20191;-77
2024/01/23 03:29:44;;;;;;;10.93;1.50;;;11.20;62.20;12.70;101734.00;;;;5042864;28;20206;-76
2024/01/23 03:32:12;;;;;;;9.20;2.13;;;11.20;62.10;12.70;101748.00;;;;5054837;28;20231;-76
2024/01/23 03:34:41;;;;;;;7.28;1.65;;;11.20;62.10;12.60;101748.00;;;;5042501;28;20207;-77
2024/01/23 03:37:08;;;;;;;5.68;1.50;;;11.20;62.10;12.60;101753.00;;;;5035851;28;20196;-76
2024/01/23 03:39:35;;;;;;;8.45;1.90;;;11.20;62.10;12.60;101771.00;;;;5043052;28;20659;-76
2024/01/23 03:42:04;;;;;;;10.68;1.95;;;11.10;62.00;12.60;101774.00;;;;5053316;28;20202;-76
2024/01/23 03:44:31;;;;;;;12.70;2.20;;;11.10;62.00;12.50;101775.00;;;;5048397;28;20669;-78
2024/01/23 03:46:58;;;;;;;5.68;1.48;;;11.10;62.60;12.50;101779.00;;;;5048581;28;20287;-77
2024/01/23 03:49:26;;;;;;;7.40;1.73;;;11.10;62.00;12.50;101780.00;;;;5050967;28;20580;-77
2024/01/23 03:51:54;;;;;;;7.88;2.22;;;11.00;61.80;12.40;101787.00;;;;5044318;28;20188;-77
2024/01/23 03:54:21;;;;;;;12.07;2.35;;;11.00;61.90;12.40;101787.00;;;;5043467;28;20536;-77
2024/01/23 03:56:48;;;;;;;8.13;1.92;;;10.90;61.90;12.40;101781.00;;;;5038995;28;20207;-77
2024/01/23 03:59:15;;;;;;;11.52;2.55;;;10.90;61.90;12.30;101785.00;;;;5041990;28;20195;-77
2024/01/23 04:01:42;;;;;;;10.63;2.67;;;10.80;61.80;12.30;101785.00;;;;5041262;28;20294;-77
2024/01/23 04:04:09;;;;;;;5.82;1.25;;;10.90;61.40;12.20;101797.00;;;;5043331;28;20199;-76
2024/01/23 04:06:36;;;;;;;5.82;1.45;;;10.80;61.80;12.20;101794.00;;;;5034904;28;20192;-77
2024/01/23 04:09:05;;;;;;;9.77;1.98;;;10.80;61.80;12.20;101806.00;;;;5034832;28;20207;-77
2024/01/23 04:11:32;;;;;;;7.10;1.42;;;10.80;61.80;12.20;101804.00;;;;5034849;28;20291;-77
2024/01/23 04:13:59;;;;;;;4.80;1.30;;;10.70;62.50;12.20;101816.00;;;;5043330;28;20318;-77
2024/01/23 04:16:26;;;;;;;6.25;1.25;;;10.70;61.80;12.10;101814.00;;;;5052607;28;20197;-77
2024/01/23 04:18:54;;;;;;;8.48;2.17;;;10.70;61.90;12.10;101822.00;;;;5038118;28;20202;-77
2024/01/23 04:21:23;;;;;;;9.35;1.55;;;10.60;61.80;12.10;101837.00;;;;5038097;28;20203;-77
2024/01/23 04:23:50;;;;;;;4.95;1.27;;;10.60;61.80;12.10;101833.00;;;;5034171;28;20197;-77
2024/01/23 04:26:19;;;;;;;6.47;1.75;;;10.60;61.90;12.00;101830.00;;;;5042224;28;20281;-74
2024/01/23 04:28:48;;;;;;;8.20;1.98;;;10.60;61.90;12.10;101838.00;;;;5044844;28;20204;-75
2024/01/23 04:31:16;;;;;;;6.65;1.60;;;10.60;62.00;12.10;101841.00;;;;5043210;28;20628;-75
2024/01/23 04:33:45;;;;;;;7.00;2.00;;;10.60;62.10;12.10;101850.00;;;;5051722;28;20215;-75
2024/01/23 04:36:12;;;;;;;6.63;1.38;;;10.50;62.10;12.10;101850.00;;;;5051371;28;20198;-75
2024/01/23 04:38:39;;;;;;;9.50;2.25;;;10.50;62.10;12.10;101862.00;;;;5050901;28;20231;-75
2024/01/23 04:41:06;;;;;;;10.20;1.48;;;10.60;62.20;12.10;101875.00;;;;5044710;28;20196;-76
2024/01/23 04:43:35;;;;;;;10.18;1.92;;;10.60;62.30;12.10;101884.00;;;;5034340;28;20227;-76
2024/01/23 04:46:03;;;;;;;9.38;1.52;;;10.60;62.40;12.10;101886.00;;;;5034242;28;20276;-76
2024/01/23 04:48:30;;;;;;;5.15;1.50;;;10.60;62.40;12.20;101882.00;;;;5044139;28;20283;-75
2024/01/23 04:50:57;;;;;;;7.38;1.38;;;10.60;62.40;12.20;101883.00;;;;5054118;28;20399;-75
2024/01/23 04:53:27;;;;;;;13.88;1.60;;;10.60;62.50;12.20;101879.00;;;;5049834;28;20270;-75
2024/01/23 04:55:54;;;;;;;6.03;1.20;;;10.60;62.40;12.20;101882.00;;;;5039324;28;20617;-76
2024/01/23 04:58:21;;;;;;;3.78;1.30;;;10.70;62.50;12.20;101900.00;;;;5043319;28;20199;-76
2024/01/23 05:00:50;;;;;;;8.55;2.05;;;10.70;62.50;12.20;101900.00;;;;5038156;28;20196;-76
2024/01/23 05:03:17;;;;;;;8.25;1.30;;;10.70;62.40;12.30;101902.00;;;;5033657;28;20653;-76
2024/01/23 05:05:44;;;;;;;8.05;1.88;;;10.70;62.40;12.30;101913.00;;;;5033674;28;20214;-75
2024/01/23 05:08:11;;;;;;;8.32;1.52;;;10.70;62.30;12.30;101917.00;;;;5034293;28;20198;-75
2024/01/23 05:10:38;;;;;;;8.70;1.75;;;10.80;62.30;12.30;101916.00;;;;5037296;28;20671;-76
2024/01/23 05:13:05;;;;;;;8.63;1.63;;;10.80;63.00;12.30;101921.00;;;;5049914;28;20219;-76
2024/01/23 05:15:32;;;;;;;10.10;2.10;;;10.80;62.20;12.30;101922.00;;;;5053217;28;20226;-76
2024/01/23 05:18:06;;;;;;;6.38;1.08;;;10.80;62.20;12.30;101921.00;;;;5048344;28;20657;-75
2024/01/23 05:20:35;;;;;;;7.22;2.08;;;10.80;62.10;12.30;101925.00;;;;5033542;28;20208;-76
2024/01/23 05:23:02;;;;;;;7.88;1.52;;;10.80;61.80;12.30;101928.00;;;;5048403;28;20299;-75
2024/01/23 05:25:29;;;;;;;12.23;2.38;;;10.80;61.80;12.30;101934.00;;;;5051391;28;20191;-76
2024/01/23 05:27:56;;;;;;;6.40;1.58;;;10.80;61.80;12.30;101928.00;;;;5041147;28;20192;-75
2024/01/23 05:30:23;;;;;;;8.02;2.22;;;10.80;61.80;12.30;101940.00;;;;5034755;28;20204;-76
2024/01/23 05:32:50;;;;;;;8.27;2.03;;;10.80;61.80;12.30;101954.00;;;;5048432;28;20742;-75
2024/01/23 05:35:19;;;;;;;8.82;2.45;;;10.80;61.80;12.20;101964.00;;;;5033052;28;20192;-76
2024/01/23 05:37:46;;;;;;;10.20;2.58;;;10.80;61.70;12.20;101966.00;;;;5046784;28;20501;-75
2024/01/23 05:40:14;;;;;;;10.13;1.48;;;10.80;62.40;12.20;101972.00;;;;5048250;28;20192;-75
2024/01/23 05:42:41;;;;;;;8.07;1.58;;;10.70;61.70;12.20;101985.00;;;;5041051;28;20287;-75
2024/01/23 05:45:10;;;;;;;7.15;1.02;;;10.70;61.70;12.20;101989.00;;;;5050835;28;20198;-75
2024/01/23 05:47:37;;;;;;;4.32;1.63;;;10.70;61.70;12.20;101986.00;;;;5047705;28;20655;-75
2024/01/23 05:50:04;;;;;;;7.88;1.40;;;10.70;61.70;12.10;101989.00;;;;5050540;28;20203;-74
2024/01/23 05:52:33;;;;;;;16.70;2.03;;;10.70;61.70;12.10;102000.00;;;;5050177;28;20711;-75
2024/01/23 05:55:00;;;;;;;10.18;1.85;;;10.60;61.70;12.10;102005.00;;;;5042345;28;20193;-74
2024/01/23 05:57:27;;;;;;;6.93;1.50;;;10.60;61.70;12.00;102009.00;;;;5042957;28;20185;-75
2024/01/23 05:59:55;;;;;;;6.03;1.60;;;10.60;61.80;12.00;102008.00;;;;5047932;28;20195;-75
2024/01/23 06:02:22;;;;;;;13.10;2.25;;;10.60;62.50;12.00;102018.00;;;;5044114;28;20204;-75
2024/01/23 06:04:49;;;;;;;10.82;2.13;;;10.60;61.80;12.00;102015.00;;;;5047799;28;20222;-74
2024/01/23 06:07:16;;;;;;;5.03;1.80;;;10.60;61.80;12.00;102028.00;;;;5045732;28;20198;-75
2024/01/23 06:09:45;;;;;;;6.90;2.00;;;10.50;61.90;12.00;102036.00;;;;5052270;28;20731;-74
2024/01/23 06:12:12;;;;;;;3.75;1.58;;;10.50;61.90;12.00;102041.00;;;;5041713;28;20191;-75
2024/01/23 06:14:39;;;;;;;8.65;2.08;;;10.40;61.80;11.90;102048.00;;;;5049089;28;20573;-75
2024/01/23 06:17:07;;;;;;;4.47;1.20;;;10.40;61.80;11.90;102043.00;;;;5049251;28;20283;-75
2024/01/23 06:19:35;;;;;;;4.18;1.17;;;10.40;61.90;11.90;102050.00;;;;5038933;28;20566;-75
2024/01/23 06:22:02;;;;;;;5.05;1.40;;;10.40;61.90;11.90;102051.00;;;;5043198;28;20261;-75
2024/01/23 06:24:29;;;;;;;10.00;1.73;;;10.30;61.90;11.90;102059.00;;;;5039708;28;20198;-74
2024/01/23 06:26:57;;;;;;;4.38;1.50;;;10.40;61.90;11.80;102070.00;;;;5037692;28;20197;-74
2024/01/23 06:29:24;;;;;;;9.32;1.83;;;10.30;62.00;11.80;102062.00;;;;5037751;28;20550;-74
2024/01/23 06:31:51;;;;;;;5.88;1.50;;;10.30;62.00;11.80;102052.00;;;;5041849;28;20211;-74
2024/01/23 06:34:20;;;;;;;9.15;1.63;;;10.30;62.00;11.80;102065.00;;;;5045239;28;20310;-75
2024/01/23 06:36:48;;;;;;;10.27;1.52;;;10.30;62.10;11.80;102077.00;;;;5044742;28;20258;-75
2024/01/23 06:39:15;;;;;;;3.95;1.17;;;10.20;62.10;11.70;102084.00;;;;5045798;28;20194;-75
2024/01/23 06:41:44;;;;;;;6.07;1.17;;;10.20;62.10;11.70;102078.00;;;;5042409;28;20187;-75
2024/01/23 06:44:12;;;;;;;6.18;1.60;;;10.20;62.20;11.70;102081.00;;;;5047648;28;20220;-75
2024/01/23 06:46:39;;;;;;;7.47;1.77;;;10.20;62.20;11.70;102083.00;;;;5037168;28;20218;-75
2024/01/23 06:49:06;;;;;;;5.20;1.58;;;10.10;62.10;11.70;102079.00;;;;5031860;28;20218;-75
2024/01/23 06:51:34;;;;;;;8.15;2.00;;;10.10;62.90;11.60;102079.00;;;;5033105;28;20204;-75
2024/01/23 06:54:02;;;;;;;7.68;1.88;;;10.10;62.30;11.60;102088.00;;;;5040747;28;20251;-75
2024/01/23 06:56:29;;;;;;;5.53;0.90;;;10.10;62.30;11.60;102089.00;;;;5035760;28;20196;-75
2024/01/23 06:58:56;;;;;;;7.15;1.33;;;10.10;62.30;11.60;102097.00;;;;5038002;28;20342;-75
2024/01/23 07:01:26;;;;;;;6.53;1.50;;;10.00;62.20;11.60;102097.00;;;;5040135;28;20288;-75
2024/01/23 07:03:53;;;;;;;6.38;1.58;;;10.00;62.20;11.60;102096.00;;;;5038519;28;20718;-75
2024/01/23 07:06:20;;;;;;;9.50;2.65;;;10.00;62.30;11.50;102091.00;;;;5035055;28;20885;-81
2024/01/23 07:08:47;;;;;;;10.05;2.53;;;9.80;63.10;11.60;102106.00;;;;5039127;28;20206;-75
2024/01/23 07:11:14;;;;;;;6.53;1.50;;;9.90;63.20;11.60;102097.00;;;;5040767;28;20271;-75
2024/01/23 07:13:41;;;;;;;8.23;1.30;;;9.90;62.90;11.60;102101.00;;;;5039103;28;20303;-75
2024/01/23 07:16:08;;;;;;;6.68;1.85;;;9.90;62.70;11.50;102108.00;;;;5045237;28;20191;-75
2024/01/23 07:18:37;;;;;;;7.53;1.73;;;9.90;62.60;11.50;102109.00;;;;5038087;28;20198;-75
2024/01/23 07:21:05;;;;;;;6.65;1.63;;;9.90;62.50;11.50;102102.00;;;;5043163;28;20215;-75
2024/01/23 07:23:34;;;;;;;7.30;1.55;;;9.80;62.50;11.40;102110.00;;;;5044479;28;20200;-75
2024/01/23 07:26:01;;;;;;;7.53;1.77;;;9.80;62.50;11.40;102118.00;;;;5043694;28;20201;-75
2024/01/23 07:28:28;;;;;;;6.10;1.63;;;9.80;62.50;11.30;102130.00;;;;5039140;28;20559;-75
2024/01/23 07:30:55;;;;;;;5.90;1.23;;;9.80;62.60;11.30;102127.00;;;;5044334;28;20699;-75
2024/01/23 07:33:22;;;;;;;3.45;1.00;;;9.80;62.70;11.30;102133.00;;;;5037359;28;20307;-75
2024/01/23 07:35:51;;;;;;;9.85;1.13;;;9.70;62.70;11.30;102137.00;;;;5039408;28;20198;-75
2024/01/23 07:38:18;;;;;;;6.45;1.10;;;9.70;62.70;11.30;102136.00;;;;5037120;28;20552;-75
2024/01/23 07:40:46;;;;;;;7.32;1.40;;;9.70;62.70;11.30;102142.00;;;;5036003;28;20207;-75
2024/01/23 07:43:13;;;;;;;8.52;1.55;;;9.60;62.70;11.30;102149.00;;;;5036656;28;20227;-75
2024/01/23 07:45:40;;;;;;;5.38;1.42;;;9.60;62.70;11.20;102144.00;;;;5033177;28;20275;-75
2024/01/23 07:48:08;;;;;;;5.47;1.67;;;9.60;62.70;11.20;102152.00;;;;5047295;28;20566;-75
2024/01/23 07:50:35;;;;;;;6.70;1.30;;;9.60;62.80;11.20;102166.00;;;;5031072;28;20196;-76
2024/01/23 07:53:04;;;;;;;6.55;1.25;;;9.60;62.80;11.20;102170.00;;;;5039571;28;20197;-75
2024/01/23 07:55:31;;;;;;;9.25;1.80;;;9.60;62.80;11.20;102175.00;;;;5030964;28;20192;-76
2024/01/23 07:57:58;;;;;;;7.35;2.47;;;9.50;62.70;11.20;102170.00;;;;5033770;28;20214;-75
2024/01/23 08:00:25;;;;;;;5.72;1.25;;;9.50;62.80;11.10;102165.00;;;;5036204;28;20203;-75
2024/01/23 08:02:52;;;;;;;8.57;2.35;;;9.50;62.80;11.10;102184.00;;;;5039588;28;20669;-75
2024/01/23 08:05:19;;;;;;;5.30;2.00;;;9.40;62.80;11.10;102166.00;;;;5039229;28;20277;-75
2024/01/23 08:07:48;;;;;;;7.50;1.80;;;9.40;62.90;11.10;102173.00;;;;5036010;28;20680;-75
2024/01/23 08:10:17;;;;;;;6.50;1.35;;;9.40;62.90;11.10;102177.00;;;;5044835;28;20219;-75
2024/01/23 08:12:44;;;;;;;8.32;1.80;;;9.40;63.00;11.00;102164.00;;;;5039052;28;20272;-75
2024/01/23 08:15:11;;;;;;;7.57;1.73;;;9.30;63.10;11.00;102186.00;;;;5035807;28;20211;-75
2024/01/23 08:17:38;;;;;;;12.20;1.52;;;9.30;63.20;11.00;102188.00;;;;5053052;28;20641;-75
2024/01/23 08:20:08;;;;;;;9.20;1.83;;;9.30;63.30;11.00;102196.00;;;;5054289;28;20286;-75
2024/01/23 08:22:35;;;;;;;7.78;1.63;;;9.30;63.50;11.00;102199.00;;;;5048482;28;20198;-75
2024/01/23 08:25:02;;;;;;;8.70;1.83;;;9.30;63.60;11.00;102222.00;;;;5052120;28;20652;-75
2024/01/23 08:27:31;;;;;;;5.47;1.85;;;9.30;63.60;10.90;102221.00;;;;5041599;28;20193;-76
2024/01/23 08:29:58;;;;;;;10.00;2.15;;;9.30;63.70;11.00;102227.00;;;;5042856;28;20191;-75
2024/01/23 08:32:25;;;;;;;9.25;2.33;;;9.30;63.80;11.00;102224.00;;;;5049791;28;20290;-76
2024/01/23 08:34:52;;;;;;;11.30;1.98;;;9.30;63.80;11.00;102237.00;;;;5034269;28;20228;-76
2024/01/23 08:37:19;;;;;;;7.68;1.48;;;9.30;63.90;11.00;102251.00;;;;5034320;28;20239;-75
2024/01/23 08:39:46;;;;;;;11.73;2.60;;;9.30;64.00;11.00;102256.00;;;;5035618;28;20199;-75
2024/01/23 08:42:13;;;;;;;6.07;1.98;;;9.30;64.10;11.00;102243.00;;;;5042370;28;20196;-75
2024/01/23 08:44:46;;;;;;;8.10;2.22;;;9.30;64.30;11.10;102255.00;;;;5041091;28;20231;-75
2024/01/23 08:47:14;;;;;;;11.65;1.92;;;9.40;64.30;11.10;102259.00;;;;5036869;28;20237;-75
2024/01/23 08:49:41;;;;;;;13.68;2.13;;;9.40;64.40;11.10;102251.00;;;;5040186;28;20218;-75
2024/01/23 08:52:08;;;;;;;9.25;1.75;;;9.40;64.40;11.10;102257.00;;;;5040620;28;20188;-75
2024/01/23 08:54:36;;;;;;;11.43;2.13;;;9.40;64.40;11.20;102254.00;;;;5034552;28;20311;-75
2024/01/23 08:57:04;;;;;;;11.93;2.33;;;9.50;64.50;11.20;102268.00;;;;5041271;28;20645;-76
2024/01/23 08:59:31;;;;;;;7.05;1.48;;;9.50;64.50;11.20;102263.00;;;;5048211;28;20222;-75
2024/01/23 09:01:59;;;;;;;6.50;2.03;;;9.50;64.60;11.30;102259.00;;;;5043751;28;20192;-75
2024/01/23 09:04:26;;;;;;;12.52;1.85;;;9.60;64.70;11.30;102258.00;;;;5036688;28;20556;-75
2024/01/23 09:06:53;;;;;;;13.93;2.40;;;9.60;64.70;11.40;102261.00;;;;5033607;28;20200;-75
2024/01/23 09:09:20;;;;;;;9.18;1.83;;;9.70;64.70;11.40;102263.00;;;;5035906;28;20646;-75
2024/01/23 09:11:47;;;;;;;7.20;2.40;;;9.70;64.60;11.40;102262.00;;;;5049615;28;20195;-75
2024/01/23 09:14:14;;;;;;;10.45;1.95;;;9.80;64.70;11.50;102261.00;;;;5037562;28;20220;-76
2024/01/23 09:16:41;;;;;;;9.98;2.20;;;9.80;64.60;11.50;102275.00;;;;5033287;28;20199;-75
2024/01/23 09:19:10;;;;;;;8.73;1.45;;;9.80;64.60;11.50;102265.00;;;;5037267;28;20275;-75
2024/01/23 09:21:37;;;;;;;10.23;1.73;;;9.90;64.50;11.50;102253.00;;;;5043536;28;20274;-75
2024/01/23 09:24:05;;;;;;;9.43;2.10;;;9.90;64.50;11.60;102260.00;;;;5051803;28;20667;-75
2024/01/23 09:26:33;;;;;;;12.70;1.92;;;9.90;64.50;11.60;102263.00;;;;5040301;28;20334;-75
2024/01/23 09:29:00;;;;;;;15.38;2.78;;;9.90;64.50;11.70;102262.00;;;;5033170;28;20200;-75
2024/01/23 09:31:27;;;;;;;10.02;1.67;;;10.00;64.60;11.70;102259.00;;;;5032932;28;20211;-75
2024/01/23 09:33:57;;;;;;;13.75;2.60;;;10.10;64.70;11.80;102262.00;;;;5048949;28;20226;-75
2024/01/23 09:36:25;;;;;;;9.55;2.22;;;10.10;64.60;11.80;102257.00;;;;5033180;28;20192;-76
2024/01/23 09:38:51;;;;;;;13.95;2.83;;;10.20;64.70;11.90;102267.00;;;;5033175;28;20279;-76
2024/01/23 09:41:18;;;;;;;11.02;2.10;;;10.20;64.70;12.00;102264.00;;;;5039380;28;20191;-77
2024/01/23 09:43:50;;;;;;;10.73;2.15;;;10.20;64.70;12.00;102265.00;;;;5045929;28;20310;-76
2024/01/23 09:46:18;;;;;;;6.93;1.75;;;10.30;64.80;12.00;102272.00;;;;5037494;28;20192;-77
2024/01/23 09:48:47;;;;;;;10.77;2.13;;;10.30;64.70;12.10;102260.00;;;;5046225;28;20206;-76
2024/01/23 09:51:15;;;;;;;12.55;2.33;;;10.40;64.70;12.20;102268.00;;;;5044543;28;20204;-76
2024/01/23 09:53:45;;;;;;;8.10;2.45;;;10.50;64.70;12.20;102276.00;;;;5047162;28;20196;-77
2024/01/23 09:56:14;;;;;;;4.68;1.67;;;10.50;64.60;12.20;102275.00;;;;5035171;28;20192;-76
2024/01/23 09:58:42;;;;;;;10.13;2.13;;;10.60;64.60;12.30;102281.00;;;;5033704;28;20295;-77
2024/01/23 10:01:09;;;;;;;9.40;2.13;;;10.60;64.50;12.30;102278.00;;;;5033213;28;20196;-76
2024/01/23 10:03:37;;;;;;;17.60;2.28;;;10.70;64.50;12.40;102272.00;;;;5032368;28;20673;-76
2024/01/23 10:06:05;;;;;;;11.25;2.00;;;10.70;64.40;12.40;102290.00;;;;5033719;28;20671;-76
2024/01/23 10:08:32;;;;;;;13.93;2.55;;;10.70;64.40;12.40;102290.00;;;;5041172;28;20200;-76
2024/01/23 10:11:02;;;;;;;12.10;2.88;;;10.80;64.30;12.40;102287.00;;;;5031882;28;20629;-76
2024/01/23 10:13:30;;;;;;;6.35;1.20;;;10.80;64.20;12.40;102285.00;;;;5033148;28;20287;-76
2024/01/23 10:15:57;;;;;;;10.35;1.88;;;10.80;64.20;12.50;102285.00;;;;5032653;28;20220;-76
2024/01/23 10:18:26;;;;;;;8.75;2.05;;;10.90;64.20;12.50;102275.00;;;;5043136;28;20203;-76
2024/01/23 10:20:53;;;;;;;9.50;1.90;;;10.90;64.30;12.50;102268.00;;;;5051681;28;20257;-76
2024/01/23 10:23:20;;;;;;;8.73;1.77;;;10.90;64.20;12.60;102270.00;;;;5052121;28;20192;-76
2024/01/23 10:25:48;;;;;;;10.75;2.20;;;10.90;64.10;12.60;102274.00;;;;5046727;28;20299;-77
2024/01/23 10:28:17;;;;;;;10.73;2.33;;;11.00;64.30;12.70;102277.00;;;;5047627;28;20199;-77
2024/01/23 10:30:45;;;;;;;12.32;3.03;;;11.00;64.30;12.70;102282.00;;;;5044504;28;20208;-77
2024/01/23 10:33:13;;;;;;;9.00;2.08;;;11.10;64.40;12.80;102286.00;;;;5043767;28;20586;-76
2024/01/23 10:35:42;;;;;;;7.05;1.88;;;11.10;64.30;12.90;102284.00;;;;5044730;28;20231;-77
2024/01/23 10:38:14;;;;;;;11.45;2.40;;;11.20;64.40;12.90;102292.00;;;;5046811;28;20357;-76
2024/01/23 10:40:41;;;;;;;11.15;1.98;;;11.20;64.40;13.00;102287.00;;;;5049890;28;20190;-78
2024/01/23 10:43:09;;;;;;;10.40;1.40;;;11.30;64.50;13.00;102286.00;;;;5040351;28;20314;-76
2024/01/23 10:45:40;;;;;;;8.95;2.35;;;11.30;64.30;13.10;102290.00;;;;5042805;28;20215;-77
2024/01/23 10:48:08;;;;;;;13.20;2.28;;;11.40;64.30;13.10;102293.00;;;;5046449;28;20188;-77